sensor_id;sensor_type;location;lat;lon;timestamp;pressure;altitude;pressure_sealevel;temperature
20490;BMP280;10403;54.092;12.122;2024-01-15T00:00:41;99113.22;;;3.70
20490;BMP280;10403;54.092;12.122;2024-01-15T00:03:08;99103.78;;;3.65
20490;BMP280;10403;54.092;12.122;2024-01-15T00:05:36;99107.13;;;3.73
20490;BMP280;10403;54.092;12.122;2024-01-15T00:08:04;99099.38;;;3.73
20490;BMP280;10403;54.092;12.122;2024-01-15T00:10:31;99099.34;;;3.76
20490;BMP280;10403;54.092;12.122;2024-01-15T00:12:59;99089.84;;;3.77
20490;BMP280;10403;54.092;12.122;2024-01-15T00:15:26;99080.38;;;3.77
20490;BMP280;10403;54.092;12.122;2024-01-15T00:17:56;99068.31;;;3.76
20490;BMP280;10403;54.092;12.122;2024-01-15T00:20:23;99064.00;;;3.77
20490;BMP280;10403;54.092;12.122;2024-01-15T00:22:52;99052.81;;;3.75
20490;BMP280;10403;54.092;12.122;2024-01-15T00:25:19;99057.13;;;3.74
20490;BMP280;10403;54.092;12.122;2024-01-15T00:27:46;99003.22;;;3.47
20490;BMP280;10403;54.092;12.122;2024-01-15T00:30:14;99027.03;;;3.71
20490;BMP280;10403;54.092;12.122;2024-01-15T00:32:42;99003.84;;;3.62
20490;BMP280;10403;54.092;12.122;2024-01-15T00:35:09;99020.94;;;3.74
20490;BMP280;10403;54.092;12.122;2024-01-15T00:37:36;99016.59;;;3.76
20490;BMP280;10403;54.092;12.122;2024-01-15T00:40:05;99000.22;;;3.77
20490;BMP280;10403;54.092;12.122;2024-01-15T00:42:33;99013.09;;;3.80
20490;BMP280;10403;54.092;12.122;2024-01-15T00:45:00;99003.63;;;3.79
20490;BMP280;10403;54.092;12.122;2024-01-15T00:47:27;98989.78;;;3.83
20490;BMP280;10403;54.092;12.122;2024-01-15T00:49:55;98992.34;;;3.83
20490;BMP280;10403;54.092;12.122;2024-01-15T00:52:22;98964.78;;;3.82
20490;BMP280;10403;54.092;12.122;2024-01-15T00:54:49;98959.59;;;3.84
20490;BMP280;10403;54.092;12.122;2024-01-15T00:57:16;98969.94;;;3.84
20490;BMP280;10403;54.092;12.122;2024-01-15T00:59:47;98944.09;;;3.82
20490;BMP280;10403;54.092;12.122;2024-01-15T01:02:15;98953.63;;;3.82
20490;BMP280;10403;54.092;12.122;2024-01-15T01:04:42;98938.94;;;3.82
20490;BMP280;10403;54.092;12.122;2024-01-15T01:07:10;98932.97;;;3.79
20490;BMP280;10403;54.092;12.122;2024-01-15T01:09:37;98926.91;;;3.81
20490;BMP280;10403;54.092;12.122;2024-01-15T01:12:05;98925.19;;;3.82
20490;BMP280;10403;54.092;12.122;2024-01-15T01:14:32;98900.97;;;3.84
20490;BMP280;10403;54.092;12.122;2024-01-15T01:16:59;98898.38;;;3.84
20490;BMP280;10403;54.092;12.122;2024-01-15T01:19:26;98888.03;;;3.84
20490;BMP280;10403;54.092;12.122;2024-01-15T01:21:54;98891.44;;;3.88
20490;BMP280;10403;54.092;12.122;2024-01-15T01:24:21;98893.19;;;3.87
20490;BMP280;10403;54.092;12.122;2024-01-15T01:26:48;98895.75;;;3.87
20490;BMP280;10403;54.092;12.122;2024-01-15T01:29:16;98884.53;;;3.90
20490;BMP280;10403;54.092;12.122;2024-01-15T01:31:46;98887.97;;;3.90
20490;BMP280;10403;54.092;12.122;2024-01-15T01:34:15;98900.81;;;3.95
20490;BMP280;10403;54.092;12.122;2024-01-15T01:36:43;98891.34;;;3.94
20490;BMP280;10403;54.092;12.122;2024-01-15T01:39:11;98874.16;;;3.91
20490;BMP280;10403;54.092;12.122;2024-01-15T01:41:39;98866.44;;;3.88
20490;BMP280;10403;54.092;12.122;2024-01-15T01:44:06;98863.03;;;3.86
20490;BMP280;10403;54.092;12.122;2024-01-15T01:46:36;98857.91;;;3.83
20490;BMP280;10403;54.092;12.122;2024-01-15T01:49:09;98857.03;;;3.83
20490;BMP280;10403;54.092;12.122;2024-01-15T01:51:38;98846.81;;;3.77
20490;BMP280;10403;54.092;12.122;2024-01-15T01:54:08;98852.84;;;3.77
20490;BMP280;10403;54.092;12.122;2024-01-15T01:56:39;98852.00;;;3.77
20490;BMP280;10403;54.092;12.122;2024-01-15T01:59:09;98851.13;;;3.76
20490;BMP280;10403;54.092;12.122;2024-01-15T02:01:39;98856.31;;;3.76
20490;BMP280;10403;54.092;12.122;2024-01-15T02:04:06;98841.66;;;3.75
20490;BMP280;10403;54.092;12.122;2024-01-15T02:06:34;98840.88;;;3.71
20490;BMP280;10403;54.092;12.122;2024-01-15T02:09:01;98831.41;;;3.72
20490;BMP280;10403;54.092;12.122;2024-01-15T02:11:29;98843.38;;;3.76
20490;BMP280;10403;54.092;12.122;2024-01-15T02:13:56;98814.19;;;3.71
20490;BMP280;10403;54.092;12.122;2024-01-15T02:16:23;98833.97;;;3.72
20490;BMP280;10403;54.092;12.122;2024-01-15T02:18:50;98825.41;;;3.68
20490;BMP280;10403;54.092;12.122;2024-01-15T02:21:18;98826.16;;;3.75
20490;BMP280;10403;54.092;12.122;2024-01-15T02:23:45;98825.28;;;3.76
20490;BMP280;10403;54.092;12.122;2024-01-15T02:26:13;98834.75;;;3.77
20490;BMP280;10403;54.092;12.122;2024-01-15T02:28:41;98826.97;;;3.79
20490;BMP280;10403;54.092;12.122;2024-01-15T02:31:11;98826.09;;;3.78
20490;BMP280;10403;54.092;12.122;2024-01-15T02:33:38;98821.78;;;3.80
20490;BMP280;10403;54.092;12.122;2024-01-15T02:36:06;98818.31;;;3.81
20490;BMP280;10403;54.092;12.122;2024-01-15T02:38:33;98814.78;;;3.84
20490;BMP280;10403;54.092;12.122;2024-01-15T02:41:01;98819.94;;;3.85
20490;BMP280;10403;54.092;12.122;2024-01-15T02:43:28;98824.34;;;3.82
20490;BMP280;10403;54.092;12.122;2024-01-15T02:45:55;98820.75;;;3.89
20490;BMP280;10403;54.092;12.122;2024-01-15T02:48:22;98817.31;;;3.88
20490;BMP280;10403;54.092;12.122;2024-01-15T02:50:50;98810.38;;;3.90
20490;BMP280;10403;54.092;12.122;2024-01-15T02:53:17;98817.28;;;3.91
20490;BMP280;10403;54.092;12.122;2024-01-15T02:55:44;98808.59;;;3.92
20490;BMP280;10403;54.092;12.122;2024-01-15T02:58:11;98806.88;;;3.93
20490;BMP280;10403;54.092;12.122;2024-01-15T03:00:38;98798.22;;;3.95
20490;BMP280;10403;54.092;12.122;2024-01-15T03:03:06;98799.91;;;3.96
20490;BMP280;10403;54.092;12.122;2024-01-15T03:05:35;98798.19;;;3.97
20490;BMP280;10403;54.092;12.122;2024-01-15T03:08:03;98800.75;;;3.98
20490;BMP280;10403;54.092;12.122;2024-01-15T03:10:31;98799.88;;;3.99
20490;BMP280;10403;54.092;12.122;2024-01-15T03:12:58;98801.56;;;4.00
20490;BMP280;10403;54.092;12.122;2024-01-15T03:15:25;98818.81;;;4.01
20490;BMP280;10403;54.092;12.122;2024-01-15T03:17:52;98807.59;;;4.01
20490;BMP280;10403;54.092;12.122;2024-01-15T03:20:20;98826.47;;;4.04
20490;BMP280;10403;54.092;12.122;2024-01-15T03:22:47;98823.03;;;4.04
20490;BMP280;10403;54.092;12.122;2024-01-15T03:25:14;98823.03;;;4.05
20490;BMP280;10403;54.092;12.122;2024-01-15T03:27:41;98826.47;;;4.04
20490;BMP280;10403;54.092;12.122;2024-01-15T03:30:09;98817.00;;;4.05
20490;BMP280;10403;54.092;12.122;2024-01-15T03:32:37;98840.28;;;4.03
20490;BMP280;10403;54.092;12.122;2024-01-15T03:35:05;98816.22;;;4.01
20490;BMP280;10403;54.092;12.122;2024-01-15T03:37:32;98811.03;;;4.01
20490;BMP280;10403;54.092;12.122;2024-01-15T03:39:59;98820.59;;;3.98
20490;BMP280;10403;54.092;12.122;2024-01-15T03:42:27;98799.91;;;3.98
20490;BMP280;10403;54.092;12.122;2024-01-15T03:44:54;98821.44;;;3.98
20490;BMP280;10403;54.092;12.122;2024-01-15T03:47:21;98802.50;;;3.96
20490;BMP280;10403;54.092;12.122;2024-01-15T03:49:48;98787.03;;;3.93
20490;BMP280;10403;54.092;12.122;2024-01-15T03:52:16;98789.53;;;3.99
20490;BMP280;10403;54.092;12.122;2024-01-15T03:54:43;98805.91;;;3.98
20490;BMP280;10403;54.092;12.122;2024-01-15T03:57:10;98795.56;;;3.98
20490;BMP280;10403;54.092;12.122;2024-01-15T03:59:40;98802.56;;;3.93
20490;BMP280;10403;54.092;12.122;2024-01-15T04:02:07;98816.22;;;4.01
20490;BMP280;10403;54.092;12.122;2024-01-15T04:04:35;98800.75;;;3.98
20490;BMP280;10403;54.092;12.122;2024-01-15T04:07:02;98799.97;;;3.93
20490;BMP280;10403;54.092;12.122;2024-01-15T04:09:30;98797.38;;;3.93
20490;BMP280;10403;54.092;12.122;2024-01-15T04:11:57;98807.63;;;3.99
20490;BMP280;10403;54.092;12.122;2024-01-15T04:14:24;98802.56;;;3.93
20490;BMP280;10403;54.092;12.122;2024-01-15T04:16:51;98812.72;;;4.02
20490;BMP280;10403;54.092;12.122;2024-01-15T04:19:19;98824.78;;;4.02
20490;BMP280;10403;54.092;12.122;2024-01-15T04:21:46;98809.38;;;3.97
20490;BMP280;10403;54.092;12.122;2024-01-15T04:24:13;98823.91;;;4.04
20490;BMP280;10403;54.092;12.122;2024-01-15T04:26:41;98838.69;;;3.98
20490;BMP280;10403;54.092;12.122;2024-01-15T04:29:10;98821.47;;;3.95
20490;BMP280;10403;54.092;12.122;2024-01-15T04:31:37;98803.56;;;3.86
20490;BMP280;10403;54.092;12.122;2024-01-15T04:34:04;98831.81;;;3.95
20490;BMP280;10403;54.092;12.122;2024-01-15T04:36:31;98819.84;;;3.91
20490;BMP280;10403;54.092;12.122;2024-01-15T04:38:59;98802.69;;;3.87
20490;BMP280;10403;54.092;12.122;2024-01-15T04:41:26;98802.69;;;3.86
20490;BMP280;10403;54.092;12.122;2024-01-15T04:43:53;98814.75;;;3.87
20490;BMP280;10403;54.092;12.122;2024-01-15T04:46:20;98821.66;;;3.86
20490;BMP280;10403;54.092;12.122;2024-01-15T04:48:48;98828.53;;;3.87
20490;BMP280;10403;54.092;12.122;2024-01-15T04:51:15;98806.25;;;3.80
20490;BMP280;10403;54.092;12.122;2024-01-15T04:53:42;98802.69;;;3.87
20490;BMP280;10403;54.092;12.122;2024-01-15T04:56:10;98822.47;;;3.88
20490;BMP280;10403;54.092;12.122;2024-01-15T04:58:37;98802.69;;;3.87
20490;BMP280;10403;54.092;12.122;2024-01-15T05:01:04;98822.47;;;3.90
20490;BMP280;10403;54.092;12.122;2024-01-15T05:03:31;98837.97;;;3.90
20490;BMP280;10403;54.092;12.122;2024-01-15T05:05:59;98828.50;;;3.90
20490;BMP280;10403;54.092;12.122;2024-01-15T05:08:26;98818.22;;;3.84
20490;BMP280;10403;54.092;12.122;2024-01-15T05:10:53;98806.88;;;3.93
20490;BMP280;10403;54.092;12.122;2024-01-15T05:13:20;98827.56;;;3.93
20490;BMP280;10403;54.092;12.122;2024-01-15T05:15:48;98836.28;;;3.89
20490;BMP280;10403;54.092;12.122;2024-01-15T05:18:16;98824.91;;;3.97
20490;BMP280;10403;54.092;12.122;2024-01-15T05:20:44;98846.44;;;3.98
20490;BMP280;10403;54.092;12.122;2024-01-15T05:23:11;98842.13;;;3.98
20490;BMP280;10403;54.092;12.122;2024-01-15T05:25:38;98844.78;;;3.94
20490;BMP280;10403;54.092;12.122;2024-01-15T05:28:06;98826.69;;;3.92
20490;BMP280;10403;54.092;12.122;2024-01-15T05:30:33;98843.00;;;3.97
20490;BMP280;10403;54.092;12.122;2024-01-15T05:33:00;98846.41;;;3.99
20490;BMP280;10403;54.092;12.122;2024-01-15T05:35:28;98831.75;;;4.00
20490;BMP280;10403;54.092;12.122;2024-01-15T05:37:55;98828.38;;;3.95
20490;BMP280;10403;54.092;12.122;2024-01-15T05:40:23;98841.28;;;3.98
20490;BMP280;10403;54.092;12.122;2024-01-15T05:42:50;98831.88;;;3.92
20490;BMP280;10403;54.092;12.122;2024-01-15T05:45:17;98853.19;;;4.05
20490;BMP280;10403;54.092;12.122;2024-01-15T05:47:45;98855.78;;;4.06
20490;BMP280;10403;54.092;12.122;2024-01-15T05:50:12;98856.63;;;4.07
20490;BMP280;10403;54.092;12.122;2024-01-15T05:52:39;98860.91;;;4.08
20490;BMP280;10403;54.092;12.122;2024-01-15T05:55:07;98872.13;;;4.08
20490;BMP280;10403;54.092;12.122;2024-01-15T05:57:34;98866.97;;;4.07
20490;BMP280;10403;54.092;12.122;2024-01-15T06:00:02;98866.13;;;4.06
20490;BMP280;10403;54.092;12.122;2024-01-15T06:02:30;98880.78;;;4.06
20490;BMP280;10403;54.092;12.122;2024-01-15T06:04:57;98870.56;;;4.00
20490;BMP280;10403;54.092;12.122;2024-01-15T06:07:24;98883.34;;;4.07
20490;BMP280;10403;54.092;12.122;2024-01-15T06:09:52;98891.97;;;4.06
20490;BMP280;10403;54.092;12.122;2024-01-15T06:12:19;98901.47;;;4.06
20490;BMP280;10403;54.092;12.122;2024-01-15T06:14:46;98887.69;;;4.05
20490;BMP280;10403;54.092;12.122;2024-01-15T06:17:14;98886.06;;;4.00
20490;BMP280;10403;54.092;12.122;2024-01-15T06:19:41;98892.00;;;4.05
20490;BMP280;10403;54.092;12.122;2024-01-15T06:22:08;98879.94;;;4.05
20490;BMP280;10403;54.092;12.122;2024-01-15T06:24:35;98902.34;;;4.06
20490;BMP280;10403;54.092;12.122;2024-01-15T06:27:03;98925.63;;;4.06
20490;BMP280;10403;54.092;12.122;2024-01-15T06:29:30;98906.66;;;4.06
20490;BMP280;10403;54.092;12.122;2024-01-15T06:31:57;98917.88;;;4.05
20490;BMP280;10403;54.092;12.122;2024-01-15T06:34:25;98941.16;;;4.05
20490;BMP280;10403;54.092;12.122;2024-01-15T06:36:52;98914.50;;;4.01
20490;BMP280;10403;54.092;12.122;2024-01-15T06:39:20;98909.41;;;3.95
20490;BMP280;10403;54.092;12.122;2024-01-15T06:41:47;98916.31;;;3.96
20490;BMP280;10403;54.092;12.122;2024-01-15T06:44:14;98930.91;;;4.00
20490;BMP280;10403;54.092;12.122;2024-01-15T06:46:43;98930.97;;;3.96
20490;BMP280;10403;54.092;12.122;2024-01-15T06:49:11;98925.81;;;3.93
20490;BMP280;10403;54.092;12.122;2024-01-15T06:51:39;98952.63;;;3.90
20490;BMP280;10403;54.092;12.122;2024-01-15T06:54:07;98933.75;;;3.84
20490;BMP280;10403;54.092;12.122;2024-01-15T06:56:34;98931.31;;;3.73
20490;BMP280;10403;54.092;12.122;2024-01-15T06:59:01;98957.16;;;3.73
20490;BMP280;10403;54.092;12.122;2024-01-15T07:01:29;98961.56;;;3.68
20490;BMP280;10403;54.092;12.122;2024-01-15T07:03:57;98968.53;;;3.63
20490;BMP280;10403;54.092;12.122;2024-01-15T07:06:24;98956.59;;;3.53
20490;BMP280;10403;54.092;12.122;2024-01-15T07:08:52;98965.16;;;3.59
20490;BMP280;10403;54.092;12.122;2024-01-15T07:11:19;98974.63;;;3.59
20490;BMP280;10403;54.092;12.122;2024-01-15T07:13:46;98984.97;;;3.59
20490;BMP280;10403;54.092;12.122;2024-01-15T07:16:13;98984.97;;;3.59
20490;BMP280;10403;54.092;12.122;2024-01-15T07:18:51;98992.72;;;3.59
20490;BMP280;10403;54.092;12.122;2024-01-15T07:21:18;98992.78;;;3.53
20490;BMP280;10403;54.092;12.122;2024-01-15T07:23:46;99010.84;;;3.57
20490;BMP280;10403;54.092;12.122;2024-01-15T07:26:13;98996.22;;;3.55
20490;BMP280;10403;54.092;12.122;2024-01-15T07:28:41;98998.03;;;3.50
20490;BMP280;10403;54.092;12.122;2024-01-15T07:31:08;98992.84;;;3.50
20490;BMP280;10403;54.092;12.122;2024-01-15T07:33:36;99023.75;;;3.59
20490;BMP280;10403;54.092;12.122;2024-01-15T07:36:04;99025.47;;;3.60
20490;BMP280;10403;54.092;12.122;2024-01-15T07:38:31;99004.00;;;3.53
20490;BMP280;10403;54.092;12.122;2024-01-15T07:40:58;99008.25;;;3.59
20490;BMP280;10403;54.092;12.122;2024-01-15T07:43:25;99008.28;;;3.56
20490;BMP280;10403;54.092;12.122;2024-01-15T07:45:54;99015.13;;;3.60
20490;BMP280;10403;54.092;12.122;2024-01-15T07:48:22;99005.69;;;3.54
20490;BMP280;10403;54.092;12.122;2024-01-15T07:50:49;99034.09;;;3.59
20490;BMP280;10403;54.092;12.122;2024-01-15T07:53:17;99030.69;;;3.55
20490;BMP280;10403;54.092;12.122;2024-01-15T07:55:44;99008.25;;;3.59
20490;BMP280;10403;54.092;12.122;2024-01-15T07:58:13;99022.03;;;3.58
20490;BMP280;10403;54.092;12.122;2024-01-15T08:00:43;99028.94;;;3.56
20490;BMP280;10403;54.092;12.122;2024-01-15T08:03:11;99028.94;;;3.57
20490;BMP280;10403;54.092;12.122;2024-01-15T08:05:40;99025.59;;;3.51
20490;BMP280;10403;54.092;12.122;2024-01-15T08:08:07;99035.00;;;3.55
20490;BMP280;10403;54.092;12.122;2024-01-15T08:10:34;99058.22;;;3.58
20490;BMP280;10403;54.092;12.122;2024-01-15T08:13:02;99073.72;;;3.58
20490;BMP280;10403;54.092;12.122;2024-01-15T08:15:30;99030.88;;;3.42
20490;BMP280;10403;54.092;12.122;2024-01-15T08:17:58;99053.06;;;3.58
20490;BMP280;10403;54.092;12.122;2024-01-15T08:20:26;99049.66;;;3.53
20490;BMP280;10403;54.092;12.122;2024-01-15T08:22:54;99053.06;;;3.56
20490;BMP280;10403;54.092;12.122;2024-01-15T08:25:21;99052.34;;;3.47
20490;BMP280;10403;54.092;12.122;2024-01-15T08:27:48;98978.72;;;3.11
20490;BMP280;10403;54.092;12.122;2024-01-15T08:30:16;99060.84;;;3.53
20490;BMP280;10403;54.092;12.122;2024-01-15T08:32:43;99041.16;;;3.43
20490;BMP280;10403;54.092;12.122;2024-01-15T08:35:11;99045.34;;;3.53
20490;BMP280;10403;54.092;12.122;2024-01-15T08:37:39;99051.38;;;3.54
20490;BMP280;10403;54.092;12.122;2024-01-15T08:40:06;99023.13;;;3.42
20490;BMP280;10403;54.092;12.122;2024-01-15T08:42:35;99073.78;;;3.53
20490;BMP280;10403;54.092;12.122;2024-01-15T08:45:02;99067.81;;;3.50
20490;BMP280;10403;54.092;12.122;2024-01-15T08:47:30;99081.59;;;3.49
20490;BMP280;10403;54.092;12.122;2024-01-15T08:49:57;99071.28;;;3.47
20490;BMP280;10403;54.092;12.122;2024-01-15T08:52:26;99055.78;;;3.46
20490;BMP280;10403;54.092;12.122;2024-01-15T08:54:56;99060.09;;;3.47
20490;BMP280;10403;54.092;12.122;2024-01-15T08:57:23;99081.59;;;3.49
20490;BMP280;10403;54.092;12.122;2024-01-15T08:59:51;99080.75;;;3.48
20490;BMP280;10403;54.092;12.122;2024-01-15T09:02:19;99036.25;;;3.23
20490;BMP280;10403;54.092;12.122;2024-01-15T09:04:47;99062.06;;;3.26
20490;BMP280;10403;54.092;12.122;2024-01-15T09:07:15;99104.97;;;3.40
20490;BMP280;10403;54.092;12.122;2024-01-15T09:09:42;99108.41;;;3.42
20490;BMP280;10403;54.092;12.122;2024-01-15T09:12:09;99108.41;;;3.40
20490;BMP280;10403;54.092;12.122;2024-01-15T09:14:40;99091.25;;;3.33
20490;BMP280;10403;54.092;12.122;2024-01-15T09:17:07;99110.16;;;3.38
20490;BMP280;10403;54.092;12.122;2024-01-15T09:19:35;99101.66;;;3.28
20490;BMP280;10403;54.092;12.122;2024-01-15T09:22:02;99096.69;;;3.10
20490;BMP280;10403;54.092;12.122;2024-01-15T09:24:30;99122.31;;;3.28
20490;BMP280;10403;54.092;12.122;2024-01-15T09:26:57;99143.09;;;3.19
20490;BMP280;10403;54.092;12.122;2024-01-15T09:29:25;99144.78;;;3.20
20490;BMP280;10403;54.092;12.122;2024-01-15T09:31:52;99132.69;;;3.24
20490;BMP280;10403;54.092;12.122;2024-01-15T09:34:20;99142.22;;;3.19
20490;BMP280;10403;54.092;12.122;2024-01-15T09:36:48;99153.31;;;3.28
20490;BMP280;10403;54.092;12.122;2024-01-15T09:39:16;99151.72;;;3.15
20490;BMP280;10403;54.092;12.122;2024-01-15T09:41:43;99141.44;;;3.11
20490;BMP280;10403;54.092;12.122;2024-01-15T09:44:12;99143.19;;;3.07
20490;BMP280;10403;54.092;12.122;2024-01-15T09:46:40;99151.72;;;3.14
20490;BMP280;10403;54.092;12.122;2024-01-15T09:49:08;99180.91;;;3.23
20490;BMP280;10403;54.092;12.122;2024-01-15T09:51:37;99194.75;;;3.21
20490;BMP280;10403;54.092;12.122;2024-01-15T09:54:06;99193.88;;;3.20
20490;BMP280;10403;54.092;12.122;2024-01-15T09:56:33;99204.25;;;3.14
20490;BMP280;10403;54.092;12.122;2024-01-15T09:59:01;99224.97;;;3.11
20490;BMP280;10403;54.092;12.122;2024-01-15T10:01:31;99203.53;;;3.00
20490;BMP280;10403;54.092;12.122;2024-01-15T10:03:59;99225.84;;;3.04
20490;BMP280;10403;54.092;12.122;2024-01-15T10:06:27;99218.25;;;2.92
20490;BMP280;10403;54.092;12.122;2024-01-15T10:08:57;99229.34;;;3.00
20490;BMP280;10403;54.092;12.122;2024-01-15T10:11:26;99200.09;;;2.98
20490;BMP280;10403;54.092;12.122;2024-01-15T10:13:53;99221.72;;;2.85
20490;BMP280;10403;54.092;12.122;2024-01-15T10:16:24;99228.56;;;2.90
20490;BMP280;10403;54.092;12.122;2024-01-15T10:18:51;99219.97;;;2.91
20490;BMP280;10403;54.092;12.122;2024-01-15T10:21:19;99207.94;;;2.84
20490;BMP280;10403;54.092;12.122;2024-01-15T10:23:47;99207.03;;;2.93
20490;BMP280;10403;54.092;12.122;2024-01-15T10:26:14;99215.66;;;2.92
20490;BMP280;10403;54.092;12.122;2024-01-15T10:28:50;99227.66;;;2.96
20490;BMP280;10403;54.092;12.122;2024-01-15T10:31:18;99245.72;;;2.97
20490;BMP280;10403;54.092;12.122;2024-01-15T10:33:48;99250.03;;;2.97
20490;BMP280;10403;54.092;12.122;2024-01-15T10:36:17;99265.59;;;2.91
20490;BMP280;10403;54.092;12.122;2024-01-15T10:38:46;99222.63;;;2.81
20490;BMP280;10403;54.092;12.122;2024-01-15T10:41:13;99250.09;;;2.85
20490;BMP280;10403;54.092;12.122;2024-01-15T10:43:41;99233.75;;;2.90
20490;BMP280;10403;54.092;12.122;2024-01-15T10:46:09;99248.38;;;2.87
20490;BMP280;10403;54.092;12.122;2024-01-15T10:48:37;99261.22;;;2.99
20490;BMP280;10403;54.092;12.122;2024-01-15T10:51:06;99274.13;;;3.02
20490;BMP280;10403;54.092;12.122;2024-01-15T10:53:39;99285.31;;;3.01
20490;BMP280;10403;54.092;12.122;2024-01-15T10:56:09;99285.31;;;3.00
20490;BMP280;10403;54.092;12.122;2024-01-15T10:58:39;99281.03;;;2.95
20490;BMP280;10403;54.092;12.122;2024-01-15T11:01:07;99286.25;;;2.91
20490;BMP280;10403;54.092;12.122;2024-01-15T11:03:35;99276.78;;;2.90
20490;BMP280;10403;54.092;12.122;2024-01-15T11:06:17;99282.78;;;2.92
20490;BMP280;10403;54.092;12.122;2024-01-15T11:08:52;99291.34;;;2.97
20490;BMP280;10403;54.092;12.122;2024-01-15T11:11:21;99307.72;;;2.97
20490;BMP280;10403;54.092;12.122;2024-01-15T11:13:49;99312.88;;;2.94
20490;BMP280;10403;54.092;12.122;2024-01-15T11:16:18;99322.38;;;2.91
20490;BMP280;10403;54.092;12.122;2024-01-15T11:21:26;99305.28;;;2.73
20490;BMP280;10403;54.092;12.122;2024-01-15T11:23:57;99312.13;;;2.76
20490;BMP280;10403;54.092;12.122;2024-01-15T11:26:44;99315.56;;;2.81
20490;BMP280;10403;54.092;12.122;2024-01-15T11:32:00;99319.00;;;2.81
20490;BMP280;10403;54.092;12.122;2024-01-15T11:34:59;99334.44;;;2.86
20490;BMP280;10403;54.092;12.122;2024-01-15T11:40:36;99323.41;;;2.64
20490;BMP280;10403;54.092;12.122;2024-01-15T11:43:06;99350.03;;;2.74
20490;BMP280;10403;54.092;12.122;2024-01-15T11:45:39;99326.00;;;2.56
20490;BMP280;10403;54.092;12.122;2024-01-15T11:50:48;99345.78;;;2.64
20490;BMP280;10403;54.092;12.122;2024-01-15T11:55:52;99361.22;;;2.67
20490;BMP280;10403;54.092;12.122;2024-01-15T11:58:22;99337.19;;;2.57
20490;BMP280;10403;54.092;12.122;2024-01-15T12:00:51;99356.94;;;2.66
20490;BMP280;10403;54.092;12.122;2024-01-15T12:03:24;99352.66;;;2.58
20490;BMP280;10403;54.092;12.122;2024-01-15T12:05:52;99364.72;;;2.59
20490;BMP280;10403;54.092;12.122;2024-01-15T12:08:23;99365.56;;;2.57
20490;BMP280;10403;54.092;12.122;2024-01-15T12:10:51;99377.63;;;2.58
20490;BMP280;10403;54.092;12.122;2024-01-15T12:13:20;99364.78;;;2.38
20490;BMP280;10403;54.092;12.122;2024-01-15T12:15:48;99361.31;;;2.45
20490;BMP280;10403;54.092;12.122;2024-01-15T12:18:18;99394.84;;;2.45
20490;BMP280;10403;54.092;12.122;2024-01-15T12:20:47;99396.66;;;2.25
20490;BMP280;10403;54.092;12.122;2024-01-15T12:23:15;99398.34;;;2.26
20490;BMP280;10403;54.092;12.122;2024-01-15T12:25:45;99380.31;;;2.23
20490;BMP280;10403;54.092;12.122;2024-01-15T12:28:14;99404.34;;;2.37
20490;BMP280;10403;54.092;12.122;2024-01-15T12:30:41;99394.06;;;2.34
20490;BMP280;10403;54.092;12.122;2024-01-15T12:33:10;99400.91;;;2.43
20490;BMP280;10403;54.092;12.122;2024-01-15T12:35:38;99399.19;;;2.45
20490;BMP280;10403;54.092;12.122;2024-01-15T12:38:05;99405.19;;;2.45
20490;BMP280;10403;54.092;12.122;2024-01-15T12:40:33;99426.69;;;2.53
20490;BMP280;10403;54.092;12.122;2024-01-15T12:43:05;99420.66;;;2.54
20490;BMP280;10403;54.092;12.122;2024-01-15T12:45:33;99418.94;;;2.53
20490;BMP280;10403;54.092;12.122;2024-01-15T12:48:04;99414.66;;;2.54
20490;BMP280;10403;54.092;12.122;2024-01-15T12:50:33;99398.34;;;2.44
20490;BMP280;10403;54.092;12.122;2024-01-15T12:53:02;99417.22;;;2.52
20490;BMP280;10403;54.092;12.122;2024-01-15T12:55:29;99390.59;;;2.41
20490;BMP280;10403;54.092;12.122;2024-01-15T12:57:57;99421.50;;;2.56
20490;BMP280;10403;54.092;12.122;2024-01-15T13:00:24;99407.75;;;2.50
20490;BMP280;10403;54.092;12.122;2024-01-15T13:02:56;99409.47;;;2.49
20490;BMP280;10403;54.092;12.122;2024-01-15T13:05:27;99432.72;;;2.54
20490;BMP280;10403;54.092;12.122;2024-01-15T13:07:55;99445.59;;;2.51
20490;BMP280;10403;54.092;12.122;2024-01-15T13:10:22;99441.31;;;2.48
20490;BMP280;10403;54.092;12.122;2024-01-15T13:12:52;99434.44;;;2.41
20490;BMP280;10403;54.092;12.122;2024-01-15T13:15:20;99442.16;;;2.47
20490;BMP280;10403;54.092;12.122;2024-01-15T13:17:48;99439.63;;;2.41
20490;BMP280;10403;54.092;12.122;2024-01-15T13:20:15;99424.13;;;2.44
20490;BMP280;10403;54.092;12.122;2024-01-15T13:22:44;99457.66;;;2.53
20490;BMP280;10403;54.092;12.122;2024-01-15T13:25:13;99464.53;;;2.54
20490;BMP280;10403;54.092;12.122;2024-01-15T13:27:40;99475.69;;;2.56
20490;BMP280;10403;54.092;12.122;2024-01-15T13:30:10;99466.22;;;2.55
20490;BMP280;10403;54.092;12.122;2024-01-15T13:32:39;99479.16;;;2.54
20490;BMP280;10403;54.092;12.122;2024-01-15T13:35:07;99474.88;;;2.51
20490;BMP280;10403;54.092;12.122;2024-01-15T13:37:37;99482.59;;;2.51
20490;BMP280;10403;54.092;12.122;2024-01-15T13:40:06;99486.91;;;2.51
20490;BMP280;10403;54.092;12.122;2024-01-15T13:42:35;99461.13;;;2.34
20490;BMP280;10403;54.092;12.122;2024-01-15T13:45:06;99486.06;;;2.44
20490;BMP280;10403;54.092;12.122;2024-01-15T13:47:35;99491.22;;;2.44
20490;BMP280;10403;54.092;12.122;2024-01-15T13:50:03;99494.66;;;2.45
20490;BMP280;10403;54.092;12.122;2024-01-15T13:52:31;99503.28;;;2.44
20490;BMP280;10403;54.092;12.122;2024-01-15T13:54:58;99518.75;;;2.42
20490;BMP280;10403;54.092;12.122;2024-01-15T13:57:26;99509.28;;;2.41
20490;BMP280;10403;54.092;12.122;2024-01-15T13:59:54;99511.00;;;2.39
20490;BMP280;10403;54.092;12.122;2024-01-15T14:02:22;99515.31;;;2.40
20490;BMP280;10403;54.092;12.122;2024-01-15T14:04:51;99525.63;;;2.39
20490;BMP280;10403;54.092;12.122;2024-01-15T14:07:19;99522.16;;;2.35
20490;BMP280;10403;54.092;12.122;2024-01-15T14:09:46;99531.66;;;2.33
20490;BMP280;10403;54.092;12.122;2024-01-15T14:12:14;99534.22;;;2.36
20490;BMP280;10403;54.092;12.122;2024-01-15T14:14:41;99525.63;;;2.28
20490;BMP280;10403;54.092;12.122;2024-01-15T14:17:08;99535.09;;;2.29
20490;BMP280;10403;54.092;12.122;2024-01-15T14:19:37;99551.41;;;2.37
20490;BMP280;10403;54.092;12.122;2024-01-15T14:22:04;99543.69;;;2.30
20490;BMP280;10403;54.092;12.122;2024-01-15T14:24:32;99545.41;;;2.32
20490;BMP280;10403;54.092;12.122;2024-01-15T14:26:59;99545.41;;;2.25